sensor_id;sensor_type;location;lat;lon;timestamp;P1;durP1;ratioP1;P2;durP2;ratioP2
51901;SDS011;37929;53.218;6.548;2022-08-03T00:01:06;5.85;;;2.70;;
51901;SDS011;37929;53.218;6.548;2022-08-03T00:03:35;7.53;;;2.78;;
51901;SDS011;37929;53.218;6.548;2022-08-03T00:06:01;9.25;;;2.97;;
51901;SDS011;37929;53.218;6.548;2022-08-03T00:08:27;8.23;;;2.80;;
51901;SDS011;37929;53.218;6.548;2022-08-03T00:10:53;9.18;;;3.38;;
51901;SDS011;37929;53.218;6.548;2022-08-03T00:13:19;9.95;;;3.05;;
51901;SDS011;37929;53.218;6.548;2022-08-03T00:15:44;9.30;;;3.30;;
51901;SDS011;37929;53.218;6.548;2022-08-03T00:18:10;9.90;;;3.40;;
51901;SDS011;37929;53.218;6.548;2022-08-03T00:20:36;7.90;;;3.50;;
51901;SDS011;37929;53.218;6.548;2022-08-03T00:23:03;9.80;;;3.22;;
51901;SDS011;37929;53.218;6.548;2022-08-03T00:25:28;8.65;;;3.05;;
51901;SDS011;37929;53.218;6.548;2022-08-03T00:27:57;9.25;;;3.28;;
51901;SDS011;37929;53.218;6.548;2022-08-03T00:30:23;7.97;;;3.25;;
51901;SDS011;37929;53.218;6.548;2022-08-03T00:32:50;8.05;;;3.13;;
51901;SDS011;37929;53.218;6.548;2022-08-03T00:35:18;9.30;;;3.55;;
51901;SDS011;37929;53.218;6.548;2022-08-03T00:37:44;10.38;;;3.45;;
51901;SDS011;37929;53.218;6.548;2022-08-03T00:40:14;8.85;;;3.47;;
51901;SDS011;37929;53.218;6.548;2022-08-03T00:42:59;10.85;;;3.85;;
51901;SDS011;37929;53.218;6.548;2022-08-03T00:45:28;10.07;;;3.40;;
51901;SDS011;37929;53.218;6.548;2022-08-03T00:48:06;6.40;;;3.30;;
51901;SDS011;37929;53.218;6.548;2022-08-03T00:50:34;7.93;;;3.17;;
51901;SDS011;37929;53.218;6.548;2022-08-03T00:53:03;9.88;;;3.40;;
51901;SDS011;37929;53.218;6.548;2022-08-03T00:55:30;9.38;;;3.15;;
51901;SDS011;37929;53.218;6.548;2022-08-03T00:57:55;9.10;;;3.30;;
51901;SDS011;37929;53.218;6.548;2022-08-03T01:00:24;7.78;;;3.00;;
51901;SDS011;37929;53.218;6.548;2022-08-03T01:02:51;8.65;;;3.20;;
51901;SDS011;37929;53.218;6.548;2022-08-03T01:05:18;9.80;;;3.42;;
51901;SDS011;37929;53.218;6.548;2022-08-03T01:13:19;10.13;;;3.58;;
51901;SDS011;37929;53.218;6.548;2022-08-03T01:15:58;10.60;;;3.33;;
51901;SDS011;37929;53.218;6.548;2022-08-03T01:18:54;11.82;;;3.42;;
51901;SDS011;37929;53.218;6.548;2022-08-03T01:21:28;8.85;;;3.22;;
51901;SDS011;37929;53.218;6.548;2022-08-03T01:26:46;9.02;;;3.10;;
51901;SDS011;37929;53.218;6.548;2022-08-03T01:32:12;9.90;;;3.05;;
51901;SDS011;37929;53.218;6.548;2022-08-03T01:34:44;6.68;;;2.63;;
51901;SDS011;37929;53.218;6.548;2022-08-03T01:37:26;6.07;;;2.50;;
51901;SDS011;37929;53.218;6.548;2022-08-03T01:40:01;10.57;;;3.20;;
51901;SDS011;37929;53.218;6.548;2022-08-03T01:42:32;6.35;;;3.08;;
51901;SDS011;37929;53.218;6.548;2022-08-03T01:45:00;9.15;;;2.80;;
51901;SDS011;37929;53.218;6.548;2022-08-03T01:47:28;9.48;;;2.90;;
51901;SDS011;37929;53.218;6.548;2022-08-03T01:49:59;7.05;;;2.78;;
51901;SDS011;37929;53.218;6.548;2022-08-03T01:52:26;7.32;;;2.92;;
51901;SDS011;37929;53.218;6.548;2022-08-03T01:54:54;9.05;;;3.10;;
51901;SDS011;37929;53.218;6.548;2022-08-03T01:57:21;5.05;;;2.70;;
51901;SDS011;37929;53.218;6.548;2022-08-03T01:59:49;8.80;;;2.97;;
51901;SDS011;37929;53.218;6.548;2022-08-03T02:02:22;7.70;;;2.80;;
51901;SDS011;37929;53.218;6.548;2022-08-03T02:04:56;8.18;;;2.88;;
51901;SDS011;37929;53.218;6.548;2022-08-03T02:07:27;7.45;;;2.50;;
51901;SDS011;37929;53.218;6.548;2022-08-03T02:09:57;7.43;;;3.03;;
51901;SDS011;37929;53.218;6.548;2022-08-03T02:12:28;6.30;;;2.63;;
51901;SDS011;37929;53.218;6.548;2022-08-03T02:14:58;10.65;;;2.33;;
51901;SDS011;37929;53.218;6.548;2022-08-03T02:17:26;6.88;;;2.65;;
51901;SDS011;37929;53.218;6.548;2022-08-03T02:19:55;8.20;;;2.67;;
51901;SDS011;37929;53.218;6.548;2022-08-03T02:22:23;9.63;;;2.42;;
51901;SDS011;37929;53.218;6.548;2022-08-03T02:24:49;7.80;;;3.10;;
51901;SDS011;37929;53.218;6.548;2022-08-03T02:27:21;6.93;;;2.47;;
51901;SDS011;37929;53.218;6.548;2022-08-03T02:29:52;8.65;;;3.10;;
51901;SDS011;37929;53.218;6.548;2022-08-03T02:32:46;10.50;;;2.65;;
51901;SDS011;37929;53.218;6.548;2022-08-03T02:35:20;7.60;;;2.38;;
51901;SDS011;37929;53.218;6.548;2022-08-03T02:37:49;6.93;;;2.80;;
51901;SDS011;37929;53.218;6.548;2022-08-03T02:40:20;5.97;;;2.30;;
51901;SDS011;37929;53.218;6.548;2022-08-03T02:42:48;7.85;;;2.55;;
51901;SDS011;37929;53.218;6.548;2022-08-03T02:45:18;7.28;;;2.83;;
51901;SDS011;37929;53.218;6.548;2022-08-03T02:47:45;10.13;;;2.40;;
51901;SDS011;37929;53.218;6.548;2022-08-03T02:50:13;7.53;;;2.38;;
51901;SDS011;37929;53.218;6.548;2022-08-03T02:52:43;8.23;;;2.78;;
51901;SDS011;37929;53.218;6.548;2022-08-03T02:55:11;7.43;;;2.85;;
51901;SDS011;37929;53.218;6.548;2022-08-03T02:57:39;6.45;;;2.50;;
51901;SDS011;37929;53.218;6.548;2022-08-03T03:00:11;9.07;;;2.40;;
51901;SDS011;37929;53.218;6.548;2022-08-03T03:02:40;8.75;;;2.60;;
51901;SDS011;37929;53.218;6.548;2022-08-03T03:05:09;10.30;;;3.00;;
51901;SDS011;37929;53.218;6.548;2022-08-03T03:07:37;6.43;;;2.38;;
51901;SDS011;37929;53.218;6.548;2022-08-03T03:10:05;6.22;;;2.50;;
51901;SDS011;37929;53.218;6.548;2022-08-03T03:12:36;9.35;;;3.00;;
51901;SDS011;37929;53.218;6.548;2022-08-03T03:15:06;7.10;;;2.63;;
51901;SDS011;37929;53.218;6.548;2022-08-03T03:17:34;10.95;;;2.92;;
51901;SDS011;37929;53.218;6.548;2022-08-03T03:20:03;8.60;;;2.65;;
51901;SDS011;37929;53.218;6.548;2022-08-03T03:22:30;6.78;;;2.78;;
51901;SDS011;37929;53.218;6.548;2022-08-03T03:24:58;7.57;;;3.33;;
51901;SDS011;37929;53.218;6.548;2022-08-03T03:27:24;7.68;;;2.45;;
51901;SDS011;37929;53.218;6.548;2022-08-03T03:29:50;6.88;;;2.75;;
51901;SDS011;37929;53.218;6.548;2022-08-03T03:32:16;8.40;;;2.67;;
51901;SDS011;37929;53.218;6.548;2022-08-03T03:34:42;7.95;;;3.08;;
51901;SDS011;37929;53.218;6.548;2022-08-03T03:37:08;14.55;;;3.67;;
51901;SDS011;37929;53.218;6.548;2022-08-03T03:39:37;9.05;;;2.63;;
51901;SDS011;37929;53.218;6.548;2022-08-03T03:42:03;8.43;;;2.90;;
51901;SDS011;37929;53.218;6.548;2022-08-03T03:44:32;8.13;;;2.78;;
51901;SDS011;37929;53.218;6.548;2022-08-03T03:47:01;9.90;;;2.80;;
51901;SDS011;37929;53.218;6.548;2022-08-03T03:49:27;11.02;;;3.30;;
51901;SDS011;37929;53.218;6.548;2022-08-03T03:51:53;10.82;;;3.38;;
51901;SDS011;37929;53.218;6.548;2022-08-03T03:54:25;10.70;;;3.78;;
51901;SDS011;37929;53.218;6.548;2022-08-03T03:56:51;12.05;;;3.30;;
51901;SDS011;37929;53.218;6.548;2022-08-03T03:59:16;9.15;;;3.28;;
51901;SDS011;37929;53.218;6.548;2022-08-03T04:01:42;7.82;;;3.08;;
51901;SDS011;37929;53.218;6.548;2022-08-03T04:04:08;7.85;;;3.15;;
51901;SDS011;37929;53.218;6.548;2022-08-03T04:06:53;8.02;;;3.22;;
51901;SDS011;37929;53.218;6.548;2022-08-03T04:09:40;7.13;;;3.00;;
51901;SDS011;37929;53.218;6.548;2022-08-03T04:12:25;10.20;;;3.28;;
51901;SDS011;37929;53.218;6.548;2022-08-03T04:14:55;5.45;;;3.15;;
51901;SDS011;37929;53.218;6.548;2022-08-03T04:17:23;6.88;;;3.28;;
51901;SDS011;37929;53.218;6.548;2022-08-03T04:19:55;9.25;;;3.20;;
51901;SDS011;37929;53.218;6.548;2022-08-03T04:22:24;12.23;;;3.38;;
51901;SDS011;37929;53.218;6.548;2022-08-03T04:24:56;7.28;;;3.45;;
51901;SDS011;37929;53.218;6.548;2022-08-03T04:27:27;10.55;;;3.30;;
51901;SDS011;37929;53.218;6.548;2022-08-03T04:29:58;10.10;;;3.92;;
51901;SDS011;37929;53.218;6.548;2022-08-03T04:32:28;9.02;;;3.15;;
51901;SDS011;37929;53.218;6.548;2022-08-03T04:34:55;9.43;;;3.60;;
51901;SDS011;37929;53.218;6.548;2022-08-03T04:37:42;10.20;;;3.20;;
51901;SDS011;37929;53.218;6.548;2022-08-03T04:40:09;10.32;;;3.38;;
51901;SDS011;37929;53.218;6.548;2022-08-03T04:42:43;6.40;;;2.80;;
51901;SDS011;37929;53.218;6.548;2022-08-03T04:45:11;7.00;;;3.00;;
51901;SDS011;37929;53.218;6.548;2022-08-03T04:47:37;7.60;;;3.70;;
51901;SDS011;37929;53.218;6.548;2022-08-03T04:50:04;7.93;;;3.53;;
51901;SDS011;37929;53.218;6.548;2022-08-03T04:52:30;8.70;;;3.65;;
51901;SDS011;37929;53.218;6.548;2022-08-03T04:54:57;9.55;;;3.88;;
51901;SDS011;37929;53.218;6.548;2022-08-03T04:57:22;10.70;;;3.70;;
51901;SDS011;37929;53.218;6.548;2022-08-03T04:59:49;8.48;;;3.60;;
51901;SDS011;37929;53.218;6.548;2022-08-03T05:02:18;9.90;;;3.67;;
51901;SDS011;37929;53.218;6.548;2022-08-03T05:04:47;11.15;;;3.30;;
51901;SDS011;37929;53.218;6.548;2022-08-03T05:07:13;10.43;;;3.20;;
51901;SDS011;37929;53.218;6.548;2022-08-03T05:09:39;8.15;;;3.47;;
51901;SDS011;37929;53.218;6.548;2022-08-03T05:12:05;7.53;;;3.00;;
51901;SDS011;37929;53.218;6.548;2022-08-03T05:14:35;8.98;;;3.42;;
51901;SDS011;37929;53.218;6.548;2022-08-03T05:17:05;9.45;;;3.90;;
51901;SDS011;37929;53.218;6.548;2022-08-03T05:19:32;9.27;;;3.55;;
51901;SDS011;37929;53.218;6.548;2022-08-03T05:21:58;10.98;;;3.90;;
51901;SDS011;37929;53.218;6.548;2022-08-03T05:24:24;7.53;;;3.15;;
51901;SDS011;37929;53.218;6.548;2022-08-03T05:26:50;8.27;;;3.35;;
51901;SDS011;37929;53.218;6.548;2022-08-03T05:29:15;7.50;;;3.20;;
51901;SDS011;37929;53.218;6.548;2022-08-03T05:31:41;11.50;;;3.50;;
51901;SDS011;37929;53.218;6.548;2022-08-03T05:34:07;10.73;;;3.47;;
51901;SDS011;37929;53.218;6.548;2022-08-03T05:36:33;11.02;;;3.78;;
51901;SDS011;37929;53.218;6.548;2022-08-03T05:38:58;7.00;;;3.22;;
51901;SDS011;37929;53.218;6.548;2022-08-03T05:41:24;8.98;;;3.58;;
51901;SDS011;37929;53.218;6.548;2022-08-03T05:43:53;12.90;;;3.63;;
51901;SDS011;37929;53.218;6.548;2022-08-03T05:46:20;9.05;;;3.60;;
51901;SDS011;37929;53.218;6.548;2022-08-03T05:48:48;9.30;;;3.30;;
51901;SDS011;37929;53.218;6.548;2022-08-03T05:51:14;9.65;;;3.42;;
51901;SDS011;37929;53.218;6.548;2022-08-03T05:53:40;12.07;;;4.10;;
51901;SDS011;37929;53.218;6.548;2022-08-03T05:56:10;10.25;;;3.53;;
51901;SDS011;37929;53.218;6.548;2022-08-03T05:58:36;10.65;;;3.65;;
51901;SDS011;37929;53.218;6.548;2022-08-03T06:01:02;9.15;;;4.00;;
51901;SDS011;37929;53.218;6.548;2022-08-03T06:03:28;11.70;;;3.70;;
51901;SDS011;37929;53.218;6.548;2022-08-03T06:05:54;13.95;;;4.30;;
51901;SDS011;37929;53.218;6.548;2022-08-03T06:08:20;12.75;;;4.00;;
51901;SDS011;37929;53.218;6.548;2022-08-03T06:10:47;12.65;;;4.18;;
51901;SDS011;37929;53.218;6.548;2022-08-03T06:13:13;10.05;;;4.35;;
51901;SDS011;37929;53.218;6.548;2022-08-03T06:15:39;9.65;;;3.97;;
51901;SDS011;37929;53.218;6.548;2022-08-03T06:18:06;11.73;;;4.20;;
51901;SDS011;37929;53.218;6.548;2022-08-03T06:20:35;12.85;;;4.32;;
51901;SDS011;37929;53.218;6.548;2022-08-03T06:23:01;14.63;;;3.90;;
51901;SDS011;37929;53.218;6.548;2022-08-03T06:25:26;12.80;;;3.78;;
51901;SDS011;37929;53.218;6.548;2022-08-03T06:27:53;9.00;;;3.58;;
51901;SDS011;37929;53.218;6.548;2022-08-03T06:30:18;9.73;;;3.53;;
51901;SDS011;37929;53.218;6.548;2022-08-03T06:32:44;8.88;;;3.83;;
51901;SDS011;37929;53.218;6.548;2022-08-03T06:35:10;10.85;;;3.60;;
51901;SDS011;37929;53.218;6.548;2022-08-03T06:37:48;17.10;;;4.25;;
51901;SDS011;37929;53.218;6.548;2022-08-03T06:40:16;15.60;;;4.40;;
51901;SDS011;37929;53.218;6.548;2022-08-03T06:42:43;11.98;;;3.90;;
51901;SDS011;37929;53.218;6.548;2022-08-03T06:45:09;11.35;;;4.00;;
51901;SDS011;37929;53.218;6.548;2022-08-03T06:47:39;10.48;;;3.83;;
51901;SDS011;37929;53.218;6.548;2022-08-03T06:50:05;12.40;;;3.90;;
51901;SDS011;37929;53.218;6.548;2022-08-03T06:52:34;12.73;;;3.92;;
51901;SDS011;37929;53.218;6.548;2022-08-03T06:55:07;12.57;;;4.00;;
51901;SDS011;37929;53.218;6.548;2022-08-03T06:57:33;9.05;;;4.18;;
51901;SDS011;37929;53.218;6.548;2022-08-03T06:59:58;14.32;;;4.60;;
51901;SDS011;37929;53.218;6.548;2022-08-03T07:02:26;12.77;;;4.38;;
51901;SDS011;37929;53.218;6.548;2022-08-03T07:04:53;18.95;;;5.43;;
51901;SDS011;37929;53.218;6.548;2022-08-03T07:07:21;16.60;;;5.07;;
51901;SDS011;37929;53.218;6.548;2022-08-03T07:09:47;13.43;;;5.00;;
51901;SDS011;37929;53.218;6.548;2022-08-03T07:12:15;16.67;;;4.32;;
51901;SDS011;37929;53.218;6.548;2022-08-03T07:14:44;10.65;;;4.40;;
51901;SDS011;37929;53.218;6.548;2022-08-03T07:17:09;16.27;;;4.53;;
51901;SDS011;37929;53.218;6.548;2022-08-03T07:19:35;11.90;;;4.22;;
51901;SDS011;37929;53.218;6.548;2022-08-03T07:22:01;10.90;;;4.57;;
51901;SDS011;37929;53.218;6.548;2022-08-03T07:24:28;10.57;;;4.18;;
51901;SDS011;37929;53.218;6.548;2022-08-03T07:26:56;13.80;;;4.05;;
51901;SDS011;37929;53.218;6.548;2022-08-03T07:29:22;12.02;;;3.97;;
51901;SDS011;37929;53.218;6.548;2022-08-03T07:31:48;13.05;;;4.13;;
51901;SDS011;37929;53.218;6.548;2022-08-03T07:34:13;12.07;;;3.83;;
51901;SDS011;37929;53.218;6.548;2022-08-03T07:36:39;14.88;;;4.05;;
51901;SDS011;37929;53.218;6.548;2022-08-03T07:39:07;16.67;;;4.80;;
51901;SDS011;37929;53.218;6.548;2022-08-03T07:41:33;10.68;;;3.60;;
51901;SDS011;37929;53.218;6.548;2022-08-03T07:43:59;13.88;;;3.90;;
51901;SDS011;37929;53.218;6.548;2022-08-03T07:46:25;11.23;;;4.38;;
51901;SDS011;37929;53.218;6.548;2022-08-03T07:48:50;11.70;;;4.28;;
51901;SDS011;37929;53.218;6.548;2022-08-03T07:51:16;13.77;;;4.25;;
51901;SDS011;37929;53.218;6.548;2022-08-03T07:53:42;13.98;;;4.63;;
51901;SDS011;37929;53.218;6.548;2022-08-03T07:56:08;9.85;;;3.75;;
51901;SDS011;37929;53.218;6.548;2022-08-03T07:58:34;12.02;;;4.82;;
51901;SDS011;37929;53.218;6.548;2022-08-03T08:01:00;9.15;;;3.60;;
51901;SDS011;37929;53.218;6.548;2022-08-03T08:03:26;9.52;;;4.35;;
51901;SDS011;37929;53.218;6.548;2022-08-03T08:05:52;12.00;;;3.88;;
51901;SDS011;37929;53.218;6.548;2022-08-03T08:08:18;15.00;;;4.35;;
51901;SDS011;37929;53.218;6.548;2022-08-03T08:10:45;13.88;;;4.32;;
51901;SDS011;37929;53.218;6.548;2022-08-03T08:13:11;12.13;;;3.78;;
51901;SDS011;37929;53.218;6.548;2022-08-03T08:15:37;12.77;;;4.50;;
51901;SDS011;37929;53.218;6.548;2022-08-03T08:18:03;15.60;;;4.40;;
51901;SDS011;37929;53.218;6.548;2022-08-03T08:20:31;10.35;;;4.32;;
51901;SDS011;37929;53.218;6.548;2022-08-03T08:22:58;9.75;;;3.95;;
51901;SDS011;37929;53.218;6.548;2022-08-03T08:25:25;11.70;;;4.25;;
51901;SDS011;37929;53.218;6.548;2022-08-03T08:27:51;10.43;;;3.78;;
51901;SDS011;37929;53.218;6.548;2022-08-03T08:30:18;12.73;;;4.22;;
51901;SDS011;37929;53.218;6.548;2022-08-03T08:32:45;12.32;;;4.20;;
51901;SDS011;37929;53.218;6.548;2022-08-03T08:35:11;10.43;;;4.10;;
51901;SDS011;37929;53.218;6.548;2022-08-03T08:37:37;9.43;;;3.92;;
51901;SDS011;37929;53.218;6.548;2022-08-03T08:40:04;10.43;;;4.00;;
51901;SDS011;37929;53.218;6.548;2022-08-03T08:42:31;14.77;;;4.32;;
51901;SDS011;37929;53.218;6.548;2022-08-03T08:44:58;10.20;;;4.53;;
51901;SDS011;37929;53.218;6.548;2022-08-03T08:47:29;9.82;;;3.83;;
51901;SDS011;37929;53.218;6.548;2022-08-03T08:49:56;12.55;;;4.18;;
51901;SDS011;37929;53.218;6.548;2022-08-03T08:52:24;11.38;;;4.13;;
51901;SDS011;37929;53.218;6.548;2022-08-03T08:54:55;9.57;;;3.83;;
51901;SDS011;37929;53.218;6.548;2022-08-03T08:57:25;9.05;;;3.90;;
51901;SDS011;37929;53.218;6.548;2022-08-03T08:59:56;12.02;;;4.88;;
51901;SDS011;37929;53.218;6.548;2022-08-03T09:02:23;9.93;;;3.92;;
51901;SDS011;37929;53.218;6.548;2022-08-03T09:04:49;11.50;;;4.65;;
51901;SDS011;37929;53.218;6.548;2022-08-03T09:07:15;11.10;;;3.85;;
51901;SDS011;37929;53.218;6.548;2022-08-03T09:09:42;14.60;;;4.60;;
51901;SDS011;37929;53.218;6.548;2022-08-03T09:12:08;11.77;;;5.18;;
51901;SDS011;37929;53.218;6.548;2022-08-03T09:14:34;11.75;;;4.15;;
51901;SDS011;37929;53.218;6.548;2022-08-03T09:17:00;14.65;;;3.97;;
51901;SDS011;37929;53.218;6.548;2022-08-03T09:19:28;13.75;;;5.00;;
51901;SDS011;37929;53.218;6.548;2022-08-03T09:27:45;11.98;;;4.72;;
51901;SDS011;37929;53.218;6.548;2022-08-03T09:30:14;10.48;;;4.10;;
51901;SDS011;37929;53.218;6.548;2022-08-03T09:32:41;9.68;;;4.13;;
51901;SDS011;37929;53.218;6.548;2022-08-03T09:35:09;11.82;;;4.40;;
51901;SDS011;37929;53.218;6.548;2022-08-03T09:37:35;12.90;;;4.43;;
51901;SDS011;37929;53.218;6.548;2022-08-03T09:40:02;12.65;;;5.00;;
51901;SDS011;37929;53.218;6.548;2022-08-03T09:42:28;11.82;;;4.43;;
51901;SDS011;37929;53.218;6.548;2022-08-03T09:44:54;12.50;;;4.43;;
51901;SDS011;37929;53.218;6.548;2022-08-03T09:47:30;13.68;;;4.80;;
51901;SDS011;37929;53.218;6.548;2022-08-03T09:50:07;9.82;;;4.10;;
51901;SDS011;37929;53.218;6.548;2022-08-03T09:52:34;12.43;;;4.25;;
51901;SDS011;37929;53.218;6.548;2022-08-03T09:55:11;14.25;;;4.15;;
51901;SDS011;37929;53.218;6.548;2022-08-03T09:57:41;12.00;;;4.22;;
51901;SDS011;37929;53.218;6.548;2022-08-03T10:00:12;14.15;;;4.90;;
51901;SDS011;37929;53.218;6.548;2022-08-03T10:02:40;12.20;;;4.40;;
51901;SDS011;37929;53.218;6.548;2022-08-03T10:05:08;12.20;;;4.88;;
51901;SDS011;37929;53.218;6.548;2022-08-03T10:07:55;12.35;;;4.68;;
51901;SDS011;37929;53.218;6.548;2022-08-03T10:10:21;7.55;;;3.80;;
51901;SDS011;37929;53.218;6.548;2022-08-03T10:12:49;10.13;;;4.45;;
51901;SDS011;37929;53.218;6.548;2022-08-03T10:15:15;11.43;;;4.28;;
51901;SDS011;37929;53.218;6.548;2022-08-03T10:17:41;9.77;;;4.35;;
51901;SDS011;37929;53.218;6.548;2022-08-03T10:20:07;12.30;;;4.30;;
51901;SDS011;37929;53.218;6.548;2022-08-03T10:22:34;12.90;;;4.40;;
51901;SDS011;37929;53.218;6.548;2022-08-03T10:25:02;10.25;;;3.83;;
51901;SDS011;37929;53.218;6.548;2022-08-03T10:27:33;9.45;;;4.03;;
51901;SDS011;37929;53.218;6.548;2022-08-03T10:30:02;12.38;;;4.60;;
51901;SDS011;37929;53.218;6.548;2022-08-03T10:32:34;11.48;;;4.43;;
51901;SDS011;37929;53.218;6.548;2022-08-03T10:35:04;10.20;;;4.05;;
51901;SDS011;37929;53.218;6.548;2022-08-03T10:37:40;10.20;;;3.88;;
51901;SDS011;37929;53.218;6.548;2022-08-03T10:40:09;15.57;;;4.65;;
51901;SDS011;37929;53.218;6.548;2022-08-03T10:42:38;15.23;;;4.38;;
51901;SDS011;37929;53.218;6.548;2022-08-03T10:45:09;10.75;;;4.13;;
51901;SDS011;37929;53.218;6.548;2022-08-03T10:47:42;13.38;;;4.10;;
51901;SDS011;37929;53.218;6.548;2022-08-03T10:50:08;9.15;;;4.13;;
51901;SDS011;37929;53.218;6.548;2022-08-03T10:52:55;12.25;;;4.10;;
51901;SDS011;37929;53.218;6.548;2022-08-03T10:55:29;11.38;;;3.65;;
51901;SDS011;37929;53.218;6.548;2022-08-03T10:58:45;13.38;;;4.50;;
51901;SDS011;37929;53.218;6.548;2022-08-03T11:01:09;13.82;;;4.32;;
51901;SDS011;37929;53.218;6.548;2022-08-03T11:08:47;14.13;;;5.18;;
51901;SDS011;37929;53.218;6.548;2022-08-03T11:11:33;10.85;;;4.50;;
51901;SDS011;37929;53.218;6.548;2022-08-03T11:16:29;14.13;;;5.35;;
51901;SDS011;37929;53.218;6.548;2022-08-03T11:19:00;14.90;;;5.20;;
51901;SDS011;37929;53.218;6.548;2022-08-03T11:29:59;14.35;;;5.82;;
51901;SDS011;37929;53.218;6.548;2022-08-03T11:46:08;15.18;;;5.45;;
51901;SDS011;37929;53.218;6.548;2022-08-03T11:48:47;15.48;;;5.45;;
51901;SDS011;37929;53.218;6.548;2022-08-03T11:51:18;15.60;;;4.88;;
51901;SDS011;37929;53.218;6.548;2022-08-03T11:53:46;16.17;;;5.30;;
51901;SDS011;37929;53.218;6.548;2022-08-03T11:56:23;18.30;;;5.10;;
51901;SDS011;37929;53.218;6.548;2022-08-03T11:58:53;13.63;;;5.00;;
51901;SDS011;37929;53.218;6.548;2022-08-03T12:01:21;14.50;;;5.18;;
51901;SDS011;37929;53.218;6.548;2022-08-03T12:04:01;17.27;;;5.32;;
51901;SDS011;37929;53.218;6.548;2022-08-03T12:06:30;15.00;;;5.13;;
51901;SDS011;37929;53.218;6.548;2022-08-03T12:09:16;14.18;;;4.95;;
51901;SDS011;37929;53.218;6.548;2022-08-03T12:11:50;17.92;;;4.72;;
51901;SDS011;37929;53.218;6.548;2022-08-03T12:14:19;12.85;;;5.10;;
51901;SDS011;37929;53.218;6.548;2022-08-03T12:16:46;16.08;;;5.13;;
51901;SDS011;37929;53.218;6.548;2022-08-03T12:21:47;12.88;;;4.28;;
51901;SDS011;37929;53.218;6.548;2022-08-03T12:24:14;18.83;;;4.88;;
51901;SDS011;37929;53.218;6.548;2022-08-03T12:26:44;13.45;;;5.30;;
51901;SDS011;37929;53.218;6.548;2022-08-03T12:29:18;13.90;;;5.38;;
51901;SDS011;37929;53.218;6.548;2022-08-03T12:31:45;20.55;;;5.28;;
51901;SDS011;37929;53.218;6.548;2022-08-03T12:34:11;16.92;;;4.80;;
51901;SDS011;37929;53.218;6.548;2022-08-03T12:36:37;16.67;;;4.95;;
51901;SDS011;37929;53.218;6.548;2022-08-03T12:39:24;14.35;;;4.70;;
51901;SDS011;37929;53.218;6.548;2022-08-03T12:41:52;13.70;;;4.65;;
51901;SDS011;37929;53.218;6.548;2022-08-03T12:44:28;12.25;;;4.35;;
51901;SDS011;37929;53.218;6.548;2022-08-03T12:46:58;16.13;;;4.85;;
51901;SDS011;37929;53.218;6.548;2022-08-03T12:49:25;14.80;;;5.00;;
51901;SDS011;37929;53.218;6.548;2022-08-03T12:54:20;13.13;;;4.75;;
51901;SDS011;37929;53.218;6.548;2022-08-03T12:59:26;13.05;;;5.35;;
51901;SDS011;37929;53.218;6.548;2022-08-03T13:01:53;11.63;;;4.50;;
51901;SDS011;37929;53.218;6.548;2022-08-03T13:04:29;19.33;;;5.32;;
51901;SDS011;37929;53.218;6.548;2022-08-03T13:06:57;13.38;;;5.57;;
51901;SDS011;37929;53.218;6.548;2022-08-03T13:09:24;17.55;;;5.70;;
51901;SDS011;37929;53.218;6.548;2022-08-03T13:12:08;15.32;;;5.90;;
51901;SDS011;37929;53.218;6.548;2022-08-03T13:14:36;15.32;;;5.97;;
51901;SDS011;37929;53.218;6.548;2022-08-03T13:17:02;15.85;;;5.70;;
51901;SDS011;37929;53.218;6.548;2022-08-03T13:19:30;13.73;;;5.15;;
51901;SDS011;37929;53.218;6.548;2022-08-03T13:22:16;16.50;;;5.53;;
51901;SDS011;37929;53.218;6.548;2022-08-03T13:24:43;14.43;;;5.25;;
51901;SDS011;37929;53.218;6.548;2022-08-03T13:27:11;15.70;;;4.80;;
51901;SDS011;37929;53.218;6.548;2022-08-03T13:29:38;16.13;;;5.28;;
51901;SDS011;37929;53.218;6.548;2022-08-03T13:32:07;15.00;;;4.63;;
51901;SDS011;37929;53.218;6.548;2022-08-03T13:34:33;16.52;;;4.82;;
51901;SDS011;37929;53.218;6.548;2022-08-03T13:36:59;13.57;;;4.45;;
51901;SDS011;37929;53.218;6.548;2022-08-03T13:39:25;17.30;;;5.60;;
51901;SDS011;37929;53.218;6.548;2022-08-03T13:41:53;11.15;;;4.75;;
51901;SDS011;37929;53.218;6.548;2022-08-03T13:44:19;14.65;;;5.28;;
51901;SDS011;37929;53.218;6.548;2022-08-03T13:46:46;11.35;;;4.90;;
51901;SDS011;37929;53.218;6.548;2022-08-03T13:49:12;8.93;;;4.50;;
51901;SDS011;37929;53.218;6.548;2022-08-03T13:51:38;15.23;;;4.40;;
51901;SDS011;37929;53.218;6.548;2022-08-03T13:54:03;13.38;;;4.25;;
51901;SDS011;37929;53.218;6.548;2022-08-03T13:56:32;12.73;;;4.10;;
51901;SDS011;37929;53.218;6.548;2022-08-03T13:58:58;9.77;;;4.68;;
51901;SDS011;37929;53.218;6.548;2022-08-03T14:01:24;13.95;;;4.45;;
51901;SDS011;37929;53.218;6.548;2022-08-03T14:03:50;13.38;;;4.47;;
51901;SDS011;37929;53.218;6.548;2022-08-03T14:06:21;15.27;;;4.35;;
51901;SDS011;37929;53.218;6.548;2022-08-03T14:08:48;12.23;;;4.07;;
51901;SDS011;37929;53.218;6.548;2022-08-03T14:11:14;11.88;;;4.53;;
51901;SDS011;37929;53.218;6.548;2022-08-03T14:13:42;13.43;;;4.05;;
51901;SDS011;37929;53.218;6.548;2022-08-03T14:16:07;11.02;;;4.00;;
51901;SDS011;37929;53.218;6.548;2022-08-03T14:18:33;12.05;;;4.53;;
51901;SDS011;37929;53.218;6.548;2022-08-03T14:21:03;10.65;;;4.53;;
51901;SDS011;37929;53.218;6.548;2022-08-03T14:23:38;14.88;;;4.55;;
51901;SDS011;37929;53.218;6.548;2022-08-03T14:26:05;14.75;;;5.15;;
51901;SDS011;37929;53.218;6.548;2022-08-03T14:28:32;12.07;;;4.70;;
51901;SDS011;37929;53.218;6.548;2022-08-03T14:30:58;16.45;;;5.20;;
51901;SDS011;37929;53.218;6.548;2022-08-03T14:33:27;13.35;;;5.00;;
51901;SDS011;37929;53.218;6.548;2022-08-03T14:35:53;11.80;;;4.97;;
51901;SDS011;37929;53.218;6.548;2022-08-03T14:38:19;13.77;;;5.22;;
51901;SDS011;37929;53.218;6.548;2022-08-03T14:40:46;13.60;;;5.75;;
51901;SDS011;37929;53.218;6.548;2022-08-03T14:43:12;14.98;;;4.63;;
51901;SDS011;37929;53.218;6.548;2022-08-03T14:45:39;9.98;;;5.22;;
51901;SDS011;37929;53.218;6.548;2022-08-03T14:48:08;11.60;;;5.18;;
51901;SDS011;37929;53.218;6.548;2022-08-03T14:50:36;15.45;;;6.10;;
51901;SDS011;37929;53.218;6.548;2022-08-03T14:53:04;10.38;;;4.90;;
51901;SDS011;37929;53.218;6.548;2022-08-03T14:55:33;11.90;;;4.88;;
51901;SDS011;37929;53.218;6.548;2022-08-03T14:57:59;13.20;;;4.68;;
51901;SDS011;37929;53.218;6.548;2022-08-03T15:00:32;11.32;;;4.22;;
51901;SDS011;37929;53.218;6.548;2022-08-03T15:02:59;8.70;;;4.28;;
51901;SDS011;37929;53.218;6.548;2022-08-03T15:05:25;9.40;;;3.70;;
51901;SDS011;37929;53.218;6.548;2022-08-03T15:07:50;9.95;;;4.18;;
51901;SDS011;37929;53.218;6.548;2022-08-03T15:10:16;11.00;;;4.10;;
51901;SDS011;37929;53.218;6.548;2022-08-03T15:12:42;10.30;;;4.05;;
51901;SDS011;37929;53.218;6.548;2022-08-03T15:15:08;9.55;;;4.45;;
51901;SDS011;37929;53.218;6.548;2022-08-03T15:17:34;15.15;;;4.60;;
51901;SDS011;37929;53.218;6.548;2022-08-03T15:20:00;8.98;;;4.32;;
51901;SDS011;37929;53.218;6.548;2022-08-03T15:22:27;8.80;;;4.32;;
51901;SDS011;37929;53.218;6.548;2022-08-03T15:24:56;9.10;;;4.15;;
51901;SDS011;37929;53.218;6.548;2022-08-03T15:27:22;10.35;;;4.82;;
51901;SDS011;37929;53.218;6.548;2022-08-03T15:29:48;8.98;;;4.03;;
51901;SDS011;37929;53.218;6.548;2022-08-03T15:32:14;13.27;;;4.38;;
51901;SDS011;37929;53.218;6.548;2022-08-03T15:34:42;10.52;;;3.70;;
51901;SDS011;37929;53.218;6.548;2022-08-03T15:37:08;9.23;;;4.13;;
51901;SDS011;37929;53.218;6.548;2022-08-03T15:39:36;9.77;;;3.78;;
51901;SDS011;37929;53.218;6.548;2022-08-03T15:42:02;8.95;;;3.75;;
51901;SDS011;37929;53.218;6.548;2022-08-03T15:44:28;10.25;;;3.78;;